Time;durP1;ratioP1;P1;durP2;ratioP2;P2;SDS_P1;SDS_P2;PMS_P1;PMS_P2;Temp;Humidity;BMP_temperature;BMP_pressure;BME280_temperature;BME280_humidity;BME280_pressure;Samples;Min_cycle;Max_cycle;Signal;HPM_P1;HPM_P2
2023/08/05 00:00:53;;;;;;;15.65;5.40;;;;;;;21.30;60.26;99790.91;5096677;28;20118;-68
2023/08/05 00:03:18;;;;;;;10.48;5.60;;;;;;;21.29;60.30;99794.69;5096739;28;20024;-68
2023/08/05 00:05:44;;;;;;;14.27;6.10;;;;;;;21.21;61.11;99777.44;5096396;28;20024;-66
2023/08/05 00:08:09;;;;;;;18.02;6.40;;;;;;;21.20;61.39;99791.25;5089691;28;20402;-67
2023/08/05 00:10:35;;;;;;;16.30;6.90;;;;;;;21.19;61.13;99792.28;5096707;28;20036;-65
2023/08/05 00:13:01;;;;;;;18.90;8.02;;;;;;;21.17;61.34;99797.06;5096701;28;20039;-67
2023/08/05 00:15:27;;;;;;;16.92;7.45;;;;;;;21.12;62.12;99794.09;5096229;28;20073;-66
2023/08/05 00:17:52;;;;;;;15.55;8.20;;;;;;;21.10;61.23;99796.19;5096472;28;20040;-66
2023/08/05 00:20:18;;;;;;;16.98;7.63;;;;;;;20.96;61.17;99768.81;5078437;28;20035;-66
2023/08/05 00:22:43;;;;;;;18.42;7.13;;;;;;;21.15;61.15;99797.28;5096130;28;20028;-67
2023/08/05 00:25:09;;;;;;;17.55;8.50;;;;;;;21.12;61.69;99803.13;5096432;28;20438;-66
2023/08/05 00:27:34;;;;;;;16.77;9.20;;;;;;;21.08;61.90;99797.22;5096098;28;20123;-66
2023/08/05 00:30:00;;;;;;;16.42;9.75;;;;;;;20.91;61.14;99769.41;5096241;28;20035;-66
2023/08/05 00:32:30;;;;;;;19.50;7.88;;;;;;;21.14;60.91;99801.06;5096110;28;20028;-66
2023/08/05 00:34:56;;;;;;;19.83;7.78;;;;;;;21.14;61.06;99802.91;5096182;28;20497;-66
2023/08/05 00:37:21;;;;;;;20.00;7.60;;;;;;;21.11;61.34;99798.72;5095561;28;20032;-65
2023/08/05 00:39:47;;;;;;;19.65;8.82;;;;;;;21.09;61.68;99798.03;5096148;28;20055;-65
2023/08/05 00:42:15;;;;;;;18.85;7.88;;;;;;;20.89;61.69;99781.50;5079173;28;20481;-67
2023/08/05 00:44:40;;;;;;;16.55;8.75;;;;;;;20.88;61.89;99783.41;5096109;28;20024;-66
2023/08/05 00:47:06;;;;;;;15.70;7.00;;;;;;;20.97;62.17;99800.44;5079118;28;20043;-65
2023/08/05 00:49:32;;;;;;;10.63;6.03;;;;;;;21.00;62.24;99813.69;5078036;28;20036;-66
2023/08/05 00:51:57;;;;;;;15.07;6.20;;;;;;;20.94;62.09;99808.97;5095744;28;20036;-66
2023/08/05 00:54:23;;;;;;;11.00;5.93;;;;;;;20.90;62.08;99808.53;5095647;28;20024;-66
2023/08/05 00:56:48;;;;;;;15.70;6.22;;;;;;;20.89;62.69;99808.72;5095388;28;20032;-65
2023/08/05 00:59:15;;;;;;;15.00;7.07;;;;;;;20.86;62.61;99809.13;5077928;28;20068;-66
2023/08/05 01:01:41;;;;;;;16.38;6.47;;;;;;;20.86;62.14;99807.25;5095556;28;20089;-66
2023/08/05 01:04:07;;;;;;;12.10;6.13;;;;;;;20.85;62.28;99812.88;5095701;28;20021;-65
2023/08/05 01:06:34;;;;;;;12.20;6.40;;;;;;;20.79;62.43;99812.59;5093543;28;20115;-65
2023/08/05 01:09:00;;;;;;;13.57;6.38;;;;;;;20.76;62.76;99803.94;5095414;28;20139;-65
2023/08/05 01:11:25;;;;;;;14.65;6.90;;;;;;;20.79;62.14;99819.88;5077657;28;20036;-66
2023/08/05 01:13:51;;;;;;;14.93;5.47;;;;;;;20.77;62.61;99817.38;5095687;28;20055;-66
2023/08/05 01:16:17;;;;;;;10.02;6.03;;;;;;;20.72;62.55;99814.34;5094912;28;20027;-66
2023/08/05 01:18:43;;;;;;;11.88;5.85;;;;;;;20.68;62.95;99813.06;5095576;28;20047;-66
2023/08/05 01:21:17;;;;;;;13.82;6.85;;;;;;;20.74;62.75;99828.63;5077861;28;20055;-65
2023/08/05 01:24:08;;;;;;;10.23;5.72;;;;;;;20.82;62.95;99816.81;5095431;28;20462;-66
2023/08/05 01:26:34;;;;;;;14.40;5.85;;;;;;;20.62;62.83;99808.38;5094432;28;20030;-66
2023/08/05 01:29:00;;;;;;;9.13;5.80;;;;;;;20.65;62.60;99818.88;5095259;28;20028;-66
2023/08/05 01:31:28;;;;;;;13.75;6.57;;;;;;;20.65;63.46;99830.63;5094465;28;20028;-66
2023/08/05 01:33:53;;;;;;;11.80;6.53;;;;;;;20.66;62.96;99820.56;5095362;28;20031;-65
2023/08/05 01:36:20;;;;;;;9.80;6.30;;;;;;;20.58;62.98;99818.78;5094580;28;20035;-65
2023/08/05 01:38:47;;;;;;;10.98;6.25;;;;;;;20.62;62.46;99825.56;5094890;28;20421;-66
2023/08/05 01:41:14;;;;;;;13.30;5.60;;;;;;;20.60;62.31;99822.16;5095021;28;20035;-66
2023/08/05 01:43:40;;;;;;;11.35;5.60;;;;;;;20.51;62.47;99796.13;5095404;28;20115;-66
2023/08/05 01:46:05;;;;;;;11.43;6.20;;;;;;;20.66;62.22;99831.44;5094315;28;20526;-66
2023/08/05 01:48:31;;;;;;;14.88;6.43;;;;;;;20.68;62.08;99823.09;5094740;28;20039;-67
2023/08/05 01:50:56;;;;;;;12.48;6.45;;;;;;;20.58;62.69;99815.25;5094723;28;20032;-65
2023/08/05 01:53:21;;;;;;;12.52;6.38;;;;;;;20.71;62.47;99830.88;5093970;28;20116;-65
2023/08/05 01:55:47;;;;;;;13.07;6.60;;;;;;;20.73;62.48;99826.91;5094202;28;20031;-66
2023/08/05 01:58:13;;;;;;;12.43;6.75;;;;;;;20.74;62.21;99841.38;5093822;28;20412;-66
2023/08/05 02:00:38;;;;;;;13.13;6.43;;;;;;;20.77;62.22;99835.56;5093873;28;20020;-66
2023/08/05 02:03:04;;;;;;;9.63;6.15;;;;;;;20.81;62.19;99838.78;5094615;28;20035;-66
2023/08/05 02:05:29;;;;;;;13.70;6.93;;;;;;;20.83;62.27;99842.16;5094351;28;20023;-66
2023/08/05 02:07:55;;;;;;;15.20;6.63;;;;;;;20.85;61.99;99849.06;5092978;28;20136;-65
2023/08/05 02:10:20;;;;;;;13.73;6.45;;;;;;;20.87;62.28;99848.91;5094131;28;20028;-66
2023/08/05 02:12:46;;;;;;;14.75;6.78;;;;;;;20.88;62.18;99845.13;5094363;28;20052;-66
2023/08/05 02:15:11;;;;;;;15.68;6.43;;;;;;;20.89;62.64;99852.25;5093663;28;20085;-65
2023/08/05 02:17:37;;;;;;;13.43;6.70;;;;;;;20.90;62.59;99851.22;5093712;28;20382;-66
2023/08/05 02:20:04;;;;;;;11.43;6.35;;;;;;;20.93;62.48;99853.56;5093883;28;20225;-66
2023/08/05 02:22:29;;;;;;;9.35;6.43;;;;;;;20.93;62.21;99853.56;5094371;28;20040;-67
2023/08/05 02:24:55;;;;;;;18.65;7.20;;;;;;;21.02;62.03;99849.72;5093242;28;20058;-66
2023/08/05 02:27:20;;;;;;;9.95;6.28;;;;;;;21.10;61.75;99856.91;5093733;28;20087;-65
2023/08/05 02:29:46;;;;;;;12.45;7.07;;;;;;;21.15;61.37;99854.47;5093724;28;20044;-66
2023/08/05 02:32:11;;;;;;;14.23;6.60;;;;;;;21.05;61.72;99835.72;5094232;28;20039;-67
2023/08/05 02:34:37;;;;;;;12.73;6.30;;;;;;;20.90;61.88;99805.81;5093048;28;20081;-67
2023/08/05 02:37:02;;;;;;;9.18;6.13;;;;;;;21.34;62.40;99873.91;5093891;28;20028;-67
2023/08/05 02:39:28;;;;;;;12.50;7.22;;;;;;;21.42;61.35;99872.94;5093339;28;20028;-66
2023/08/05 02:41:53;;;;;;;13.90;7.05;;;;;;;21.36;61.11;99859.06;5093544;28;20430;-69
2023/08/05 02:44:19;;;;;;;11.88;6.90;;;;;;;21.50;60.64;99870.09;5093549;28;20062;-65
2023/08/05 02:46:44;;;;;;;14.18;6.72;;;;;;;21.54;60.74;99886.88;5093904;28;20491;-67
2023/08/05 02:49:10;;;;;;;15.27;6.75;;;;;;;21.59;60.41;99879.81;5093253;28;20059;-66
2023/08/05 02:51:36;;;;;;;14.55;6.65;;;;;;;21.65;59.76;99892.69;5093615;28;20042;-66
2023/08/05 02:54:02;;;;;;;12.65;6.63;;;;;;;21.52;59.86;99868.03;5075920;28;20466;-65
2023/08/05 02:56:28;;;;;;;11.98;6.80;;;;;;;21.71;59.84;99885.63;5093198;28;20028;-66
2023/08/05 02:58:53;;;;;;;13.07;7.13;;;;;;;21.80;59.26;99886.31;5092867;28;20024;-65
2023/08/05 03:01:19;;;;;;;11.57;6.40;;;;;;;21.87;59.81;99898.13;5093174;28;20059;-66
2023/08/05 03:03:44;;;;;;;10.52;6.55;;;;;;;21.94;59.55;99896.31;5093501;28;20032;-66
2023/08/05 03:06:10;;;;;;;11.13;7.03;;;;;;;22.03;58.83;99896.16;5075517;28;20516;-65
2023/08/05 03:08:35;;;;;;;11.60;6.55;;;;;;;21.90;58.21;99869.63;5093078;28;20876;-65
2023/08/05 03:11:02;;;;;;;15.75;9.15;;;;;;;22.15;58.34;99905.47;5093161;28;20127;-66
2023/08/05 03:13:27;;;;;;;12.02;7.35;;;;;;;22.15;58.06;99894.56;5093429;28;20028;-66
2023/08/05 03:15:54;;;;;;;11.05;7.68;;;;;;;22.29;57.73;99900.13;5093243;28;20085;-66
2023/08/05 03:18:20;;;;;;;12.93;7.28;;;;;;;22.37;57.73;99905.41;5092941;28;20450;-66
2023/08/05 03:20:47;;;;;;;13.00;7.70;;;;;;;22.48;58.49;99904.91;5093355;28;20032;-66
2023/08/05 03:23:13;;;;;;;10.45;7.68;;;;;;;22.55;57.34;99904.09;5093384;28;20020;-67
2023/08/05 03:25:38;;;;;;;12.00;7.22;;;;;;;22.43;57.20;99873.78;5092778;28;20031;-66
2023/08/05 03:28:04;;;;;;;13.13;6.43;;;;;;;22.69;56.41;99907.75;5092880;28;20493;-66
2023/08/05 03:30:29;;;;;;;11.73;6.72;;;;;;;22.80;55.92;99918.09;5092146;28;20028;-66
2023/08/05 03:32:55;;;;;;;11.55;5.95;;;;;;;22.88;56.37;99917.06;5092859;28;20162;-66
2023/08/05 03:35:21;;;;;;;9.55;6.07;;;;;;;22.94;56.15;99913.53;5092381;28;20465;-66
2023/08/05 03:37:46;;;;;;;8.25;6.45;;;;;;;23.05;56.02;99917.56;5093432;28;20024;-66
2023/08/05 03:40:13;;;;;;;10.13;6.63;;;;;;;23.17;55.98;99920.56;5092540;28;20039;-65
2023/08/05 03:42:39;;;;;;;8.05;5.82;;;;;;;23.31;54.50;99922.31;5092687;28;20061;-65
2023/08/05 03:45:06;;;;;;;9.57;5.88;;;;;;;23.54;55.26;99915.63;5092672;28;20093;-66
2023/08/05 03:47:33;;;;;;;12.27;6.28;;;;;;;24.22;52.30;99917.38;5092828;28;20042;-65
2023/08/05 03:49:59;;;;;;;11.70;5.50;;;;;;;25.19;50.18;99926.00;5091812;28;20509;-66
2023/08/05 03:52:26;;;;;;;12.27;5.60;;;;;;;26.40;46.97;99916.94;5092128;28;20040;-66
2023/08/05 03:54:52;;;;;;;7.90;4.97;;;;;;;27.63;44.26;99915.28;5092404;28;20024;-66
2023/08/05 03:57:18;;;;;;;7.13;4.88;;;;;;;28.68;41.53;99914.72;5092945;28;20405;-66
2023/08/05 03:59:43;;;;;;;11.85;5.47;;;;;;;29.68;38.86;99930.25;5091865;28;20032;-66
2023/08/05 04:02:10;;;;;;;9.20;5.45;;;;;;;30.63;36.84;99926.03;5092098;28;20115;-68
2023/08/05 04:04:35;;;;;;;11.55;4.93;;;;;;;31.42;35.24;99928.66;5092392;28;20028;-67
2023/08/05 04:07:01;;;;;;;9.25;4.68;;;;;;;32.26;34.06;99919.97;5092497;28;20101;-67
2023/08/05 04:09:27;;;;;;;13.93;4.95;;;;;;;33.28;31.95;99934.66;5091681;28;20048;-68
2023/08/05 04:11:53;;;;;;;8.10;5.05;;;;;;;34.07;30.67;99934.53;5092136;28;20047;-68
2023/08/05 04:14:20;;;;;;;10.32;4.68;;;;;;;34.82;29.52;99932.97;5092363;28;20407;-68
2023/08/05 04:16:47;;;;;;;9.57;4.68;;;;;;;35.50;28.27;99908.44;5092072;28;20042;-70
2023/08/05 04:19:17;;;;;;;9.15;4.78;;;;;;;36.59;26.86;99952.13;5075440;28;20032;-68
2023/08/05 04:21:47;;;;;;;11.10;4.80;;;;;;;37.15;25.64;99938.66;5092231;28;20023;-68
2023/08/05 04:24:13;;;;;;;10.65;4.38;;;;;;;37.82;25.05;99946.03;5091810;28;20492;-68
2023/08/05 04:26:40;;;;;;;9.38;4.43;;;;;;;38.42;24.24;99954.81;5092330;28;20036;-69
2023/08/05 04:29:06;;;;;;;8.13;4.80;;;;;;;38.90;23.15;99925.66;5091707;28;20032;-68
2023/08/05 04:31:32;;;;;;;8.00;5.47;;;;;;;39.32;22.59;99957.22;5092162;28;20077;-68
2023/08/05 04:33:57;;;;;;;9.75;4.65;;;;;;;39.65;22.17;99949.78;5092261;28;20028;-70
2023/08/05 04:36:23;;;;;;;9.90;4.78;;;;;;;40.11;21.42;99945.84;5092443;28;20028;-68
2023/08/05 04:38:48;;;;;;;8.93;4.10;;;;;;;40.67;20.72;99948.28;5091861;28;20332;-68
2023/08/05 04:41:14;;;;;;;8.02;4.65;;;;;;;41.36;19.89;99947.97;5094600;28;20165;-68
2023/08/05 04:43:39;;;;;;;9.68;4.43;;;;;;;41.92;19.29;99947.31;5095605;28;20039;-69
2023/08/05 04:46:05;;;;;;;6.72;3.60;;;;;;;42.59;18.76;99945.00;5095480;28;20028;-69
2023/08/05 04:48:30;;;;;;;8.65;3.72;;;;;;;43.16;18.10;99954.13;5095168;28;20358;-67
2023/08/05 04:50:56;;;;;;;9.85;4.65;;;;;;;43.81;16.97;99953.81;5095666;28;20032;-67
2023/08/05 04:53:21;;;;;;;8.70;4.00;;;;;;;44.30;16.62;99952.31;5096026;28;20038;-65
2023/08/05 04:55:47;;;;;;;12.15;3.85;;;;;;;44.88;16.06;99948.63;5095948;28;20093;-66
2023/08/05 04:58:12;;;;;;;8.23;4.40;;;;;;;45.36;15.64;99950.94;5077346;28;20046;-63
2023/08/05 05:00:39;;;;;;;7.72;3.50;;;;;;;45.77;15.24;99960.22;5095326;28;20040;-76
2023/08/05 05:03:06;;;;;;;10.18;3.83;;;;;;;45.93;14.92;99928.31;5095651;28;20102;-77
2023/08/05 05:05:33;;;;;;;7.35;3.85;;;;;;;46.52;14.30;99954.13;5095647;28;20063;-77
2023/08/05 05:07:59;;;;;;;8.10;3.83;;;;;;;47.01;13.75;99958.56;5094671;28;20079;-75
2023/08/05 05:10:25;;;;;;;8.00;4.10;;;;;;;47.32;13.25;99953.22;5096176;28;20032;-73
2023/08/05 05:12:51;;;;;;;4.65;3.75;;;;;;;47.61;13.62;99957.44;5096076;28;20040;-68
2023/08/05 05:15:19;;;;;;;8.95;3.47;;;;;;;47.34;13.75;99942.31;5095360;28;20193;-72
2023/08/05 05:17:45;;;;;;;7.75;3.58;;;;;;;47.43;13.73;99957.91;5077441;28;20069;-63
2023/08/05 05:20:11;;;;;;;7.80;3.47;;;;;;;47.67;13.22;99956.00;5095212;28;20031;-67
2023/08/05 05:22:36;;;;;;;5.43;3.28;;;;;;;47.77;13.11;99956.56;5078428;28;20458;-67
2023/08/05 05:25:02;;;;;;;7.97;3.60;;;;;;;47.82;12.93;99965.59;5094798;28;20093;-61
2023/08/05 05:27:27;;;;;;;7.47;3.40;;;;;;;48.00;12.68;99967.97;5095205;28;20024;-62
2023/08/05 05:29:53;;;;;;;7.22;3.17;;;;;;;48.31;13.09;99966.09;5094812;28;20035;-62
2023/08/05 05:32:18;;;;;;;11.75;3.60;;;;;;;48.60;12.86;99969.44;5095064;28;20081;-62
2023/08/05 05:34:44;;;;;;;5.68;3.55;;;;;;;48.70;12.78;99970.81;5094659;28;20039;-62
2023/08/05 05:37:10;;;;;;;6.55;3.38;;;;;;;48.89;12.26;99967.09;5077908;28;20038;-61
2023/08/05 05:39:35;;;;;;;6.22;3.53;;;;;;;49.19;11.95;99962.66;5076865;28;20331;-65
2023/08/05 05:42:01;;;;;;;10.88;3.80;;;;;;;49.55;12.38;99972.50;5094586;28;20086;-63
2023/08/05 05:44:27;;;;;;;3.85;2.97;;;;;;;49.93;10.83;99968.88;5094252;28;20493;-62
2023/08/05 05:46:54;;;;;;;4.75;2.50;;;;;;;50.20;10.84;99982.97;5093831;28;20067;-62
2023/08/05 05:49:19;;;;;;;6.05;2.85;;;;;;;50.44;10.41;99977.94;5094534;28;20035;-62
2023/08/05 05:51:46;;;;;;;7.85;2.80;;;;;;;50.61;10.22;99965.06;5093760;28;20055;-62
2023/08/05 05:54:12;;;;;;;5.78;2.63;;;;;;;50.76;9.84;99981.03;5094244;28;20077;-61
2023/08/05 05:56:39;;;;;;;7.13;2.60;;;;;;;50.87;9.80;99988.84;5094274;28;20073;-64
2023/08/05 05:59:04;;;;;;;5.40;2.15;;;;;;;50.95;9.64;99979.97;5093979;28;20451;-62
2023/08/05 06:01:30;;;;;;;4.50;2.20;;;;;;;51.07;9.23;99986.53;5093350;28;20047;-62
2023/08/05 06:03:55;;;;;;;5.93;2.55;;;;;;;51.32;9.52;99985.88;5094113;28;20082;-61
2023/08/05 06:06:21;;;;;;;4.32;2.55;;;;;;;51.46;9.58;99985.13;5094678;28;20036;-62
2023/08/05 06:08:47;;;;;;;7.05;2.50;;;;;;;51.77;9.83;99988.53;5093665;28;20046;-63
2023/08/05 06:11:12;;;;;;;3.53;2.50;;;;;;;52.04;8.86;99991.88;5094003;28;20042;-63
2023/08/05 06:13:38;;;;;;;3.70;2.38;;;;;;;52.29;8.82;99991.09;5093563;28;20036;-61
2023/08/05 06:16:05;;;;;;;4.75;2.50;;;;;;;52.60;9.21;99994.38;5094254;28;20027;-61
2023/08/05 06:18:30;;;;;;;3.80;2.75;;;;;;;53.12;8.42;99990.25;5093827;28;20036;-62
2023/08/05 06:20:56;;;;;;;3.85;2.85;;;;;;;53.36;8.42;99979.16;5094326;28;20319;-61
2023/08/05 06:23:21;;;;;;;4.18;2.50;;;;;;;53.64;7.64;99983.13;5093731;28;20039;-60
2023/08/05 06:25:47;;;;;;;4.30;2.80;;;;;;;53.77;8.07;99978.56;5093877;28;20374;-61
2023/08/05 06:28:13;;;;;;;3.00;2.70;;;;;;;53.70;7.89;99984.31;5093775;28;20342;-61
2023/08/05 06:30:47;;;;;;;4.45;3.00;;;;;;;54.15;8.34;99968.50;5093424;28;20034;-62
2023/08/05 06:33:13;;;;;;;6.55;2.83;;;;;;;54.14;8.00;99984.88;5092779;28;20465;-59
2023/08/05 06:35:41;;;;;;;6.15;3.40;;;;;;;54.69;7.61;99996.75;5093778;28;20052;-61
2023/08/05 06:38:07;;;;;;;4.32;3.28;;;;;;;54.98;7.21;99982.09;5093473;28;20036;-60
2023/08/05 06:40:32;;;;;;;7.05;3.00;;;;;;;54.94;6.96;99987.88;5093409;28;20032;-61
2023/08/05 06:42:58;;;;;;;3.78;2.95;;;;;;;54.97;7.24;99983.34;5093163;28;20408;-61
2023/08/05 06:45:24;;;;;;;4.68;3.22;;;;;;;54.89;6.84;99988.34;5093782;28;20032;-63
2023/08/05 06:47:49;;;;;;;7.30;3.05;;;;;;;54.85;7.07;99992.47;5092868;28;20421;-61
2023/08/05 06:50:15;;;;;;;5.45;2.88;;;;;;;54.92;7.19;99993.22;5093468;28;20024;-61
2023/08/05 06:52:41;;;;;;;4.60;3.47;;;;;;;55.31;6.78;99978.88;5092802;28;20042;-63
2023/08/05 06:55:08;;;;;;;4.82;3.30;;;;;;;55.79;6.97;99985.63;5092814;28;20103;-60
2023/08/05 06:57:34;;;;;;;4.53;3.50;;;;;;;56.01;6.51;99974.69;5093192;28;20028;-60
2023/08/05 07:00:00;;;;;;;4.57;2.95;;;;;;;56.24;6.55;99975.94;5093196;28;20028;-60
2023/08/05 07:02:25;;;;;;;4.93;3.42;;;;;;;56.57;6.14;99976.19;5093098;28;20047;-61
2023/08/05 07:04:54;;;;;;;6.35;3.95;;;;;;;57.15;6.29;99985.81;5092330;28;20032;-61
2023/08/05 07:07:20;;;;;;;4.45;4.03;;;;;;;57.21;6.06;99984.88;5092889;28;20064;-61
2023/08/05 07:09:46;;;;;;;6.18;3.95;;;;;;;57.90;5.62;99982.59;5093175;28;20043;-64
2023/08/05 07:12:11;;;;;;;5.05;4.50;;;;;;;58.29;4.98;99986.56;5092309;28;20028;-58
2023/08/05 07:14:38;;;;;;;4.88;4.35;;;;;;;58.15;5.57;99989.81;5092928;28;20032;-61
2023/08/05 07:17:04;;;;;;;7.78;4.40;;;;;;;57.81;5.52;99988.94;5093013;28;20576;-62
2023/08/05 07:19:30;;;;;;;4.05;3.78;;;;;;;54.95;6.71;99978.03;5093411;28;20035;-71
2023/08/05 07:21:55;;;;;;;6.10;3.72;;;;;;;51.25;9.15;99975.25;5074966;28;20028;-61
2023/08/05 07:24:21;;;;;;;3.88;2.67;;;;;;;48.36;11.03;99974.31;5092871;28;20047;-60
2023/08/05 07:26:46;;;;;;;9.52;2.70;;;;;;;46.25;12.90;99960.34;5092192;28;20244;-64
2023/08/05 07:29:12;;;;;;;3.28;2.13;;;;;;;44.17;13.90;99965.59;5092994;28;20031;-60
2023/08/05 07:31:37;;;;;;;4.18;1.80;;;;;;;42.41;15.69;99983.63;5092002;28;20024;-61
2023/08/05 07:34:07;;;;;;;5.43;2.13;;;;;;;41.24;17.31;99969.13;5092778;28;20132;-60
2023/08/05 07:36:33;;;;;;;4.72;1.92;;;;;;;41.00;17.46;99983.56;5092740;28;20063;-61
2023/08/05 07:39:02;;;;;;;4.15;1.80;;;;;;;41.83;16.57;99976.28;5092949;28;20040;-49
2023/08/05 07:41:28;;;;;;;5.22;1.90;;;;;;;42.39;16.06;99975.50;5092717;28;20131;-50
2023/08/05 07:43:57;;;;;;;4.15;2.35;;;;;;;43.21;15.34;99970.84;5090991;28;20490;-54
2023/08/05 07:46:25;;;;;;;6.47;1.75;;;;;;;43.35;14.91;99975.41;5092699;28;20172;-54
2023/08/05 07:48:56;;;;;;;4.75;1.88;;;;;;;42.00;15.99;99980.22;5092875;28;20431;-55
2023/08/05 07:51:23;;;;;;;2.75;1.65;;;;;;;40.96;16.90;99974.16;5092556;28;20028;-57
2023/08/05 07:53:50;;;;;;;4.35;2.10;;;;;;;40.17;17.89;99969.78;5092250;28;20039;-49
2023/08/05 07:56:16;;;;;;;3.17;2.20;;;;;;;42.79;15.92;99982.00;5092662;28;20043;-54
2023/08/05 07:58:45;;;;;;;5.15;1.80;;;;;;;44.11;14.71;99984.72;5089653;28;20027;-58
2023/08/05 08:01:19;;;;;;;6.68;1.60;;;;;;;45.63;13.69;99985.25;5092013;28;20040;-58
2023/08/05 08:03:45;;;;;;;5.25;2.00;;;;;;;47.27;12.58;99983.50;5091889;28;20031;-50
2023/08/05 08:06:15;;;;;;;7.25;2.10;;;;;;;47.41;12.20;99982.16;5092252;28;20040;-53
2023/08/05 08:08:42;;;;;;;6.95;2.33;;;;;;;48.84;10.74;99978.78;5092551;28;20117;-60
2023/08/05 08:11:08;;;;;;;12.85;3.08;;;;;;;50.34;10.01;99973.78;5092703;28;20032;-55
2023/08/05 08:13:34;;;;;;;4.70;2.08;;;;;;;50.66;9.85;99973.22;5091644;28;20035;-57
2023/08/05 08:15:59;;;;;;;4.35;2.10;;;;;;;50.87;9.92;99972.53;5095258;28;20378;-53
2023/08/05 08:18:25;;;;;;;3.28;2.00;;;;;;;50.96;9.43;99975.91;5095016;28;20024;-54
2023/08/05 08:20:51;;;;;;;6.05;2.30;;;;;;;50.07;9.74;99980.41;5095919;28;20036;-55
2023/08/05 08:23:17;;;;;;;2.28;1.90;;;;;;;47.91;11.61;99970.22;5095691;28;20107;-54
2023/08/05 08:25:43;;;;;;;2.15;1.55;;;;;;;45.52;13.14;99973.63;5096265;28;20032;-60
2023/08/05 08:28:08;;;;;;;3.55;2.03;;;;;;;43.68;14.84;99972.66;5095457;28;20362;-59
2023/08/05 08:30:34;;;;;;;4.00;1.85;;;;;;;41.85;16.34;99973.94;5096457;28;20028;-63
2023/08/05 08:32:59;;;;;;;5.82;2.15;;;;;;;40.36;18.03;99965.97;5095919;28;20465;-58
2023/08/05 08:35:24;;;;;;;4.75;2.15;;;;;;;39.21;19.39;99958.59;5095931;28;20480;-60
2023/08/05 08:37:50;;;;;;;6.28;2.28;;;;;;;38.27;20.67;99969.91;5096008;28;20031;-51
2023/08/05 08:40:16;;;;;;;5.10;2.00;;;;;;;37.55;20.81;99974.69;5096028;28;20024;-57
2023/08/05 08:42:42;;;;;;;3.90;1.92;;;;;;;36.67;21.73;99984.13;5095253;28;20494;-54
2023/08/05 08:45:11;;;;;;;4.30;2.20;;;;;;;35.90;22.66;99986.44;5096125;28;20039;-53
2023/08/05 08:47:41;;;;;;;2.53;1.92;;;;;;;35.54;22.58;99981.09;5095717;28;20024;-54
2023/08/05 08:50:07;;;;;;;6.57;1.92;;;;;;;35.32;23.73;99979.53;5095812;28;20027;-53
2023/08/05 08:52:35;;;;;;;3.13;1.90;;;;;;;35.20;23.93;99955.66;5095842;28;20442;-52
2023/08/05 08:55:03;;;;;;;5.20;2.10;;;;;;;35.39;23.89;99982.00;5096002;28;20024;-52
2023/08/05 08:57:29;;;;;;;3.28;2.10;;;;;;;35.38;23.93;99971.97;5094839;28;20027;-56
2023/08/05 08:59:56;;;;;;;6.80;2.20;;;;;;;35.35;23.69;99985.34;5095531;28;20032;-54
2023/08/05 09:02:24;;;;;;;4.60;2.00;;;;;;;35.33;23.23;99970.91;5094931;28;20048;-53
2023/08/05 09:04:54;;;;;;;7.00;2.25;;;;;;;35.36;24.17;99980.63;5095708;28;20024;-52
2023/08/05 09:07:22;;;;;;;8.48;2.30;;;;;;;35.28;24.41;99978.44;5095026;28;20036;-54
2023/08/05 09:09:48;;;;;;;4.63;1.98;;;;;;;35.05;24.97;99978.81;5095249;28;20067;-53
2023/08/05 09:12:14;;;;;;;3.33;1.77;;;;;;;34.91;25.09;99984.13;5094860;28;20070;-55
2023/08/05 09:14:40;;;;;;;4.00;1.98;;;;;;;34.91;24.79;99972.16;5095427;28;20085;-51
2023/08/05 09:17:06;;;;;;;4.30;2.22;;;;;;;34.89;24.93;99979.97;5094735;28;20024;-54
2023/08/05 09:19:31;;;;;;;2.95;1.80;;;;;;;34.74;24.85;99980.84;5095217;28;20435;-56
2023/08/05 09:22:02;;;;;;;2.55;2.05;;;;;;;34.60;24.71;99970.31;5094648;28;20067;-52
2023/08/05 09:24:27;;;;;;;5.07;2.20;;;;;;;34.71;24.87;99989.75;5095220;28;20075;-56
2023/08/05 09:26:57;;;;;;;6.22;1.90;;;;;;;34.76;24.99;99996.16;5093752;28;20060;-57
2023/08/05 09:29:24;;;;;;;6.28;2.00;;;;;;;34.68;25.31;99991.13;5095008;28;20031;-53
2023/08/05 09:31:54;;;;;;;3.85;2.45;;;;;;;34.54;24.64;99962.28;5094482;28;20024;-53
2023/08/05 09:34:20;;;;;;;5.13;2.30;;;;;;;34.61;24.97;99996.16;5095012;28;20024;-52
2023/08/05 09:36:46;;;;;;;2.72;1.90;;;;;;;34.56;24.73;99991.44;5094360;28;20054;-53
2023/08/05 09:39:16;;;;;;;3.47;2.25;;;;;;;34.16;25.32;99962.59;5094624;28;20038;-51
2023/08/05 09:41:54;;;;;;;5.70;2.10;;;;;;;34.25;25.75;99973.97;5094615;28;20028;-56
2023/08/05 09:44:20;;;;;;;5.32;2.00;;;;;;;34.18;26.54;99985.34;5094882;28;20053;-56
2023/08/05 09:46:46;;;;;;;6.65;1.90;;;;;;;34.09;26.95;100003.66;5094628;28;20032;-57
2023/08/05 09:49:14;;;;;;;2.85;2.17;;;;;;;33.72;27.13;99992.50;5094252;28;20049;-52
2023/08/05 09:51:49;;;;;;;4.05;2.30;;;;;;;33.57;26.82;99998.03;5094361;28;20096;-51
2023/08/05 09:54:23;;;;;;;2.65;2.40;;;;;;;33.20;26.84;99966.53;5094538;28;20123;-54
2023/08/05 09:56:49;;;;;;;6.95;2.53;;;;;;;33.18;27.39;100007.56;5094403;28;20032;-51
2023/08/05 09:59:16;;;;;;;3.72;2.30;;;;;;;33.11;28.13;100007.00;5094258;28;20032;-55
2023/08/05 10:01:42;;;;;;;8.02;2.55;;;;;;;33.01;28.07;99994.72;5093668;28;20104;-57
2023/08/05 10:04:09;;;;;;;6.18;2.38;;;;;;;32.70;28.27;99982.63;5094027;28;20107;-55
2023/08/05 10:06:41;;;;;;;4.80;2.40;;;;;;;32.74;27.99;100008.72;5093936;28;20489;-53
2023/08/05 10:09:07;;;;;;;3.45;2.00;;;;;;;32.71;28.26;99998.16;5094094;28;20040;-49
2023/08/05 10:11:36;;;;;;;7.85;2.35;;;;;;;32.91;28.28;100005.78;5093752;28;20040;-52
2023/08/05 10:14:03;;;;;;;11.68;2.78;;;;;;;33.26;27.32;99992.34;5093651;28;20031;-53
2023/08/05 10:16:29;;;;;;;6.78;2.67;;;;;;;33.36;27.29;99959.94;5076236;28;20469;-56
2023/08/05 10:18:54;;;;;;;4.22;2.33;;;;;;;33.66;27.07;99990.00;5093968;28;20063;-53
2023/08/05 10:21:42;;;;;;;8.10;2.65;;;;;;;33.78;26.67;100001.69;5093173;28;20058;-57
2023/08/05 10:24:08;;;;;;;5.47;2.00;;;;;;;33.48;27.58;99995.78;5093758;28;20032;-55
2023/08/05 10:26:46;;;;;;;5.80;2.03;;;;;;;33.15;28.02;99963.75;5092898;28;20031;-55
2023/08/05 10:29:30;;;;;;;7.78;2.15;;;;;;;32.92;28.23;99997.22;5093356;28;20438;-56
2023/08/05 10:32:14;;;;;;;4.60;2.20;;;;;;;32.72;28.93;99978.47;5092990;28;20115;-54
2023/08/05 10:34:39;;;;;;;4.13;2.10;;;;;;;32.55;29.34;99975.03;5093561;28;20046;-55
2023/08/05 10:37:05;;;;;;;4.78;2.30;;;;;;;32.46;29.99;99986.63;5093328;28;20028;-52
2023/08/05 10:39:39;;;;;;;3.22;2.03;;;;;;;32.44;29.76;99983.28;5093317;28;20062;-54
2023/08/05 10:42:29;;;;;;;6.20;2.42;;;;;;;32.60;29.67;99975.91;5092548;28;20119;-52
2023/08/05 10:44:55;;;;;;;4.43;2.40;;;;;;;32.50;29.26;99971.13;5093548;28;20402;-56
2023/08/05 10:47:21;;;;;;;4.82;2.40;;;;;;;32.57;30.09;99975.63;5093503;28;20063;-52
2023/08/05 10:49:50;;;;;;;8.05;2.70;;;;;;;32.59;29.34;99978.97;5093352;28;20446;-55
2023/08/05 10:52:18;;;;;;;2.67;2.17;;;;;;;32.40;28.87;99948.06;5092794;28;20038;-52
2023/08/05 10:54:46;;;;;;;4.53;2.67;;;;;;;32.47;28.85;99973.63;5092796;28;20118;-53
2023/08/05 10:57:38;;;;;;;2.53;2.25;;;;;;;32.52;28.65;99970.03;5093229;28;20036;-54
2023/08/05 11:00:05;;;;;;;3.13;2.20;;;;;;;32.31;30.51;99972.63;5079429;28;20058;-54
2023/08/05 11:02:37;;;;;;;4.47;2.40;;;;;;;32.28;30.44;99968.47;5092736;28;20378;-57
2023/08/05 11:05:08;;;;;;;6.53;2.30;;;;;;;32.34;29.88;99972.97;5093069;28;20040;-58
2023/08/05 11:07:40;;;;;;;3.78;2.30;;;;;;;32.41;30.08;99978.28;5092761;28;20138;-51
2023/08/05 11:10:07;;;;;;;5.22;2.50;;;;;;;32.45;29.43;99971.09;5092543;28;20465;-54
2023/08/05 11:12:32;;;;;;;7.20;2.40;;;;;;;32.45;29.75;99979.41;5092568;28;20042;-56
2023/08/05 11:14:59;;;;;;;5.28;2.30;;;;;;;32.50;30.33;99976.69;5092780;28;20111;-59
2023/08/05 11:17:25;;;;;;;6.13;2.30;;;;;;;32.34;28.54;99980.47;5093158;28;20413;-54
2023/08/05 11:19:54;;;;;;;5.65;2.10;;;;;;;32.19;29.08;99981.97;5092709;28;20119;-53
2023/08/05 11:22:23;;;;;;;5.07;2.30;;;;;;;32.13;29.96;99980.28;5092672;28;20028;-55
2023/08/05 11:24:55;;;;;;;5.68;2.60;;;;;;;32.17;29.09;99981.41;5092110;28;20061;-52
2023/08/05 11:27:32;;;;;;;5.95;2.70;;;;;;;32.19;29.27;99979.19;5077923;28;20038;-53
2023/08/05 11:29:57;;;;;;;5.28;2.42;;;;;;;31.93;30.26;99939.38;5092836;28;20393;-54